createdAt,value
2022-08-05T00:01:27.828Z,22.30
2022-08-05T00:03:56.916Z,22.30
2022-08-05T00:06:29.256Z,22.20
2022-08-05T00:09:00.388Z,22.20
2022-08-05T00:11:30.423Z,22.20
2022-08-05T00:14:02.568Z,22.10
2022-08-05T00:16:52.548Z,22.20
2022-08-05T00:19:22.264Z,22.10
2022-08-05T00:21:49.376Z,22.10
2022-08-05T00:24:19.322Z,22.10
2022-08-05T00:26:52.987Z,22.10
2022-08-05T00:29:22.362Z,22.00
2022-08-05T00:32:10.710Z,22.00
2022-08-05T00:34:54.549Z,22.00
2022-08-05T00:37:27.140Z,21.90
2022-08-05T00:40:13.639Z,21.80
2022-08-05T00:42:49.085Z,21.90
2022-08-05T00:45:16.722Z,21.80
2022-08-05T00:47:57.788Z,21.90
2022-08-05T00:50:32.210Z,21.90
2022-08-05T00:52:58.898Z,21.80
2022-08-05T00:55:42.393Z,21.80
2022-08-05T00:58:13.423Z,21.80
2022-08-05T01:00:40.396Z,21.70
2022-08-05T01:03:08.875Z,21.70
2022-08-05T01:05:35.574Z,21.60
2022-08-05T01:08:40.069Z,21.60
2022-08-05T01:10:52.725Z,21.70
2022-08-05T01:13:58.277Z,21.70
2022-08-05T01:16:54.089Z,21.70
2022-08-05T01:20:00.893Z,21.60
2022-08-05T01:23:15.406Z,21.60
2022-08-05T01:26:14.083Z,21.50
2022-08-05T01:28:54.240Z,21.40
2022-08-05T01:31:42.691Z,21.40
2022-08-05T01:34:45.836Z,21.40
2022-08-05T01:37:32.952Z,21.40
2022-08-05T01:40:03.766Z,21.40
2022-08-05T01:42:30.486Z,21.40
2022-08-05T01:44:59.840Z,21.40
2022-08-05T01:47:38.763Z,21.40
2022-08-05T01:50:15.283Z,21.30
2022-08-05T01:52:43.468Z,21.30
2022-08-05T01:55:11.574Z,21.20
2022-08-05T01:58:09.706Z,21.10
2022-08-05T02:00:30.747Z,21.10
2022-08-05T02:03:24.333Z,21.00
2022-08-05T02:05:59.661Z,20.90
2022-08-05T02:08:29.717Z,20.90
2022-08-05T02:11:02.351Z,20.80
2022-08-05T02:13:53.879Z,20.80
2022-08-05T02:16:25.495Z,20.80
2022-08-05T02:19:00.996Z,20.90
2022-08-05T02:21:42.985Z,20.90
2022-08-05T02:24:17.815Z,20.80
2022-08-05T02:26:53.898Z,20.90
2022-08-05T02:29:24.092Z,21.00
2022-08-05T02:31:54.038Z,20.90
2022-08-05T02:34:22.766Z,20.90
2022-08-05T02:36:51.617Z,20.90
2022-08-05T02:39:21.534Z,20.90
2022-08-05T02:41:57.840Z,20.90
2022-08-05T02:44:27.765Z,20.80
2022-08-05T02:47:00.106Z,20.70
2022-08-05T02:49:40.446Z,20.70
2022-08-05T02:52:13.569Z,20.60
2022-08-05T02:54:52.942Z,20.60
2022-08-05T02:58:10.466Z,20.60
2022-08-05T03:00:08.006Z,20.60
2022-08-05T03:02:38.237Z,20.50
2022-08-05T03:05:06.047Z,20.50
2022-08-05T03:07:59.148Z,20.50
2022-08-05T03:10:21.982Z,20.50
2022-08-05T03:12:52.425Z,20.40
2022-08-05T03:15:19.457Z,20.20
2022-08-05T03:17:46.185Z,20.10
2022-08-05T03:20:13.425Z,20.10
2022-08-05T03:22:44.358Z,20.00
2022-08-05T03:26:03.583Z,20.10
2022-08-05T03:28:04.580Z,20.10
2022-08-05T03:30:34.250Z,20.10
2022-08-05T03:33:01.940Z,20.00
2022-08-05T03:35:28.919Z,20.00
2022-08-05T03:38:02.612Z,20.00
2022-08-05T03:40:31.858Z,20.00
2022-08-05T03:43:15.815Z,20.00
2022-08-05T03:45:57.484Z,20.00
2022-08-05T03:48:29.178Z,20.10
2022-08-05T03:52:48.982Z,20.00
2022-08-05T03:55:52.303Z,20.00
2022-08-05T03:57:16.278Z,20.00
2022-08-05T03:59:54.889Z,19.90
2022-08-05T04:02:37.863Z,19.90
2022-08-05T04:05:09.624Z,19.90
2022-08-05T04:07:58.323Z,20.00
2022-08-05T04:10:33.313Z,20.00
2022-08-05T04:13:05.162Z,20.00
2022-08-05T04:15:33.313Z,20.00
2022-08-05T04:18:07.313Z,20.00
2022-08-05T04:20:36.216Z,20.00
2022-08-05T04:23:02.965Z,20.00
2022-08-05T04:25:56.871Z,20.00
2022-08-05T04:28:17.594Z,20.00
2022-08-05T04:30:44.843Z,20.10
2022-08-05T04:33:12.117Z,20.20
2022-08-05T04:36:15.957Z,20.20
2022-08-05T04:38:40.023Z,20.10
2022-08-05T04:41:09.359Z,20.00
2022-08-05T04:43:37.505Z,20.10
2022-08-05T04:46:07.366Z,20.10
2022-08-05T04:48:34.294Z,20.20
2022-08-05T04:51:03.722Z,20.20
2022-08-05T04:53:38.830Z,20.30
2022-08-05T04:56:33.068Z,20.40
2022-08-05T04:58:54.225Z,20.40
2022-08-05T05:02:05.769Z,20.60
2022-08-05T05:04:07.603Z,20.80
2022-08-05T05:06:36.528Z,20.90
2022-08-05T05:09:18.371Z,21.00
2022-08-05T05:11:55.642Z,21.20
2022-08-05T05:14:31.332Z,21.30
2022-08-05T05:17:00.102Z,21.50
2022-08-05T05:19:27.592Z,21.70
2022-08-05T05:22:24.382Z,22.00
2022-08-05T05:24:58.034Z,22.30
2022-08-05T05:27:41.404Z,22.70
2022-08-05T05:30:29.644Z,23.10
2022-08-05T05:33:00.423Z,23.50
2022-08-05T05:35:28.979Z,23.80
2022-08-05T05:38:01.578Z,24.20
2022-08-05T05:40:29.104Z,24.60
2022-08-05T05:42:56.882Z,24.90
2022-08-05T05:45:24.608Z,25.30
2022-08-05T05:48:06.593Z,25.60
2022-08-05T05:50:43.840Z,25.90
2022-08-05T05:53:22.589Z,26.30
2022-08-05T05:55:51.690Z,26.70
2022-08-05T05:58:31.630Z,27.20
2022-08-05T06:01:12.397Z,27.50
2022-08-05T06:04:01.980Z,27.80
2022-08-05T06:06:28.064Z,28.30
2022-08-05T06:08:58.789Z,28.70
2022-08-05T06:11:26.042Z,29.10
2022-08-05T06:13:53.962Z,29.40
2022-08-05T06:16:30.435Z,29.70
2022-08-05T06:19:01.085Z,30.10
2022-08-05T06:21:36.707Z,30.50
2022-08-05T06:24:06.267Z,31.00
2022-08-05T06:26:38.366Z,31.40
2022-08-05T06:29:15.575Z,31.80
2022-08-05T06:31:52.063Z,32.30
2022-08-05T06:34:19.958Z,32.60
2022-08-05T06:36:57.904Z,32.40
2022-08-05T06:39:27.360Z,31.90
2022-08-05T06:41:56.176Z,31.30
2022-08-05T06:44:25.453Z,30.80
2022-08-05T06:46:52.766Z,30.20
2022-08-05T06:49:21.562Z,29.70
2022-08-05T06:52:08.254Z,29.40
2022-08-05T06:54:54.949Z,29.00
2022-08-05T06:58:02.557Z,28.70
2022-08-05T07:00:09.856Z,28.40
2022-08-05T07:02:46.571Z,28.20
2022-08-05T07:05:18.558Z,28.10
2022-08-05T07:07:48.859Z,28.00
2022-08-05T07:10:16.385Z,28.10
2022-08-05T07:13:02.086Z,28.30
2022-08-05T07:16:00.934Z,28.50
2022-08-05T07:18:30.036Z,28.80
2022-08-05T07:20:56.971Z,29.60
2022-08-05T07:23:26.448Z,30.40
2022-08-05T07:25:56.961Z,30.90
2022-08-05T07:28:25.119Z,31.30
2022-08-05T07:30:54.871Z,31.60
2022-08-05T07:33:36.450Z,31.90
2022-08-05T07:36:20.274Z,32.20
2022-08-05T07:38:48.068Z,32.30
2022-08-05T07:42:14.193Z,32.40
2022-08-05T07:44:05.587Z,32.60
2022-08-05T07:46:41.340Z,32.90
2022-08-05T07:49:15.030Z,33.20
2022-08-05T07:51:52.967Z,33.50
2022-08-05T07:54:26.493Z,33.70
2022-08-05T07:57:14.553Z,34.00
2022-08-05T07:59:41.042Z,34.00
2022-08-05T08:02:16.859Z,33.60
2022-08-05T08:04:48.579Z,33.10
2022-08-05T08:07:15.934Z,32.70
2022-08-05T08:09:43.539Z,32.70
2022-08-05T08:12:29.687Z,32.90
2022-08-05T08:14:57.271Z,33.40
2022-08-05T08:17:30.249Z,33.90
2022-08-05T08:20:21.653Z,34.40
2022-08-05T08:22:43.810Z,34.60
2022-08-05T08:25:16.039Z,34.80
2022-08-05T08:27:47.515Z,34.80
2022-08-05T08:30:20.307Z,34.80
2022-08-05T08:33:04.444Z,34.60
2022-08-05T08:35:41.224Z,34.60
2022-08-05T08:38:08.671Z,34.60
2022-08-05T08:40:45.685Z,34.80
2022-08-05T08:45:20.353Z,35.00
2022-08-05T08:46:06.095Z,35.10
2022-08-05T08:48:59.391Z,35.20
2022-08-05T08:52:05.985Z,35.10
2022-08-05T08:54:10.532Z,34.90
2022-08-05T08:56:47.928Z,35.00
2022-08-05T08:59:19.671Z,35.10
2022-08-05T09:01:57.282Z,35.30
2022-08-05T09:04:30.528Z,35.40
2022-08-05T09:06:57.654Z,35.60
2022-08-05T09:09:26.018Z,35.70
2022-08-05T09:12:19.811Z,35.70
2022-08-05T09:14:56.899Z,35.70
2022-08-05T09:17:41.125Z,35.70
2022-08-05T09:20:10.864Z,35.70
2022-08-05T09:23:05.033Z,35.50
2022-08-05T09:26:01.346Z,35.50
2022-08-05T09:28:24.422Z,35.60
2022-08-05T09:31:43.405Z,35.70
2022-08-05T09:34:04.255Z,35.60
2022-08-05T09:36:56.002Z,35.40
2022-08-05T09:39:27.764Z,35.40
2022-08-05T09:42:08.768Z,35.60
2022-08-05T09:44:41.754Z,35.90
2022-08-05T09:47:15.895Z,36.20
2022-08-05T09:49:54.561Z,36.40
2022-08-05T09:52:33.642Z,36.20
2022-08-05T09:55:57.651Z,36.00
2022-08-05T09:57:59.713Z,35.90
2022-08-05T10:00:26.857Z,35.80
2022-08-05T10:02:58.016Z,35.70
2022-08-05T10:05:26.899Z,35.50
2022-08-05T10:08:34.603Z,35.40
2022-08-05T10:10:44.060Z,35.30
2022-08-05T10:13:10.785Z,35.00
2022-08-05T10:15:41.490Z,34.80
2022-08-05T10:18:09.702Z,34.70
2022-08-05T10:20:42.767Z,34.70
2022-08-05T10:23:33.979Z,34.90
2022-08-05T10:26:01.055Z,34.90
2022-08-05T10:28:29.756Z,34.90
2022-08-05T10:32:50.523Z,34.90
2022-08-05T10:33:44.692Z,35.00
2022-08-05T10:36:11.388Z,35.30
2022-08-05T10:38:38.134Z,35.40
2022-08-05T10:41:23.835Z,35.70
2022-08-05T10:43:54.756Z,35.80
2022-08-05T10:46:23.862Z,36.00
2022-08-05T10:49:02.754Z,36.00
2022-08-05T10:51:57.519Z,36.00
2022-08-05T10:54:56.431Z,36.00
2022-08-05T10:57:29.573Z,35.90
2022-08-05T11:00:18.672Z,35.90
2022-08-05T11:03:23.076Z,36.10
2022-08-05T11:06:06.371Z,36.30
2022-08-05T11:08:37.327Z,36.40
2022-08-05T11:11:44.237Z,36.50
2022-08-05T11:14:12.990Z,36.40
2022-08-05T11:16:56.224Z,36.40
2022-08-05T11:20:11.535Z,36.50
2022-08-05T11:22:39.687Z,36.50
2022-08-05T11:26:06.165Z,36.70
2022-08-05T11:28:35.864Z,36.60
2022-08-05T11:31:06.263Z,36.70
2022-08-05T11:33:46.049Z,36.90
2022-08-05T11:36:34.617Z,37.00
2022-08-05T11:39:06.442Z,37.10
2022-08-05T11:41:54.729Z,37.20
2022-08-05T11:44:40.431Z,37.30
2022-08-05T11:47:14.092Z,37.30
2022-08-05T11:49:58.234Z,37.30
2022-08-05T11:52:28.986Z,37.10
2022-08-05T11:54:57.694Z,37.10
2022-08-05T11:57:29.208Z,37.20
2022-08-05T11:59:57.868Z,37.40
2022-08-05T12:02:33.096Z,37.40
2022-08-05T12:05:07.454Z,37.30
2022-08-05T12:08:10.271Z,37.00
2022-08-05T12:10:24.871Z,36.70
2022-08-05T12:13:15.859Z,36.70
2022-08-05T12:15:50.240Z,36.80
2022-08-05T12:18:32.334Z,37.00
2022-08-05T12:21:20.604Z,37.00
2022-08-05T12:24:05.224Z,37.00
2022-08-05T12:26:44.008Z,37.20
2022-08-05T12:29:16.112Z,37.40
2022-08-05T12:31:53.170Z,37.70
2022-08-05T12:34:28.323Z,37.90
2022-08-05T12:36:56.130Z,38.10
2022-08-05T12:39:34.366Z,38.20
2022-08-05T12:42:03.954Z,38.40
2022-08-05T12:44:35.135Z,38.40
2022-08-05T12:47:02.221Z,38.30
2022-08-05T12:50:03.896Z,38.30
2022-08-05T12:52:35.288Z,38.30
2022-08-05T12:55:28.365Z,38.40
2022-08-05T12:58:50.061Z,38.50
2022-08-05T13:02:03.966Z,38.60
2022-08-05T13:03:41.725Z,38.80
2022-08-05T13:06:19.800Z,38.90
2022-08-05T13:08:51.777Z,38.90
2022-08-05T13:11:25.631Z,38.60
2022-08-05T13:14:19.353Z,38.20
2022-08-05T13:16:51.526Z,37.90
2022-08-05T13:19:21.034Z,37.70
2022-08-05T13:21:55.951Z,37.80
2022-08-05T13:24:27.599Z,37.90
2022-08-05T13:27:11.335Z,38.10
2022-08-05T13:30:31.619Z,38.40
2022-08-05T13:32:35.137Z,38.50
2022-08-05T13:35:06.401Z,38.70
2022-08-05T13:37:34.514Z,38.60
2022-08-05T13:40:15.890Z,38.80
2022-08-05T13:42:43.974Z,39.10
2022-08-05T13:45:12.036Z,39.10
2022-08-05T13:48:08.747Z,39.30
2022-08-05T13:50:26.173Z,39.60
2022-08-05T13:52:52.888Z,40.00
2022-08-05T13:55:41.210Z,40.30
2022-08-05T13:58:06.263Z,40.60
2022-08-05T14:00:33.207Z,40.90
2022-08-05T14:03:01.431Z,40.80
2022-08-05T14:05:48.620Z,40.80
2022-08-05T14:08:21.376Z,40.80
2022-08-05T14:11:03.157Z,41.00
2022-08-05T14:13:48.175Z,41.10
2022-08-05T14:16:16.783Z,41.20
2022-08-05T14:18:43.863Z,41.40
2022-08-05T14:22:06.733Z,41.50
2022-08-05T14:23:57.234Z,41.50
2022-08-05T14:26:36.763Z,41.60
2022-08-05T14:29:14.007Z,41.70
2022-08-05T14:32:02.649Z,41.80
2022-08-05T14:34:35.276Z,41.90
2022-08-05T14:37:03.747Z,42.00
2022-08-05T14:39:31.788Z,41.90
2022-08-05T14:42:19.623Z,41.90
2022-08-05T14:44:56.693Z,42.00
2022-08-05T14:47:23.993Z,42.20
2022-08-05T14:50:18.168Z,42.40
2022-08-05T14:52:53.002Z,42.10
2022-08-05T14:55:20.516Z,41.40
2022-08-05T14:57:55.806Z,40.60
2022-08-05T15:00:28.167Z,39.70
2022-08-05T15:02:56.439Z,38.90
2022-08-05T15:05:29.901Z,38.30
2022-08-05T15:08:06.461Z,37.70
2022-08-05T15:10:41.483Z,37.20
2022-08-05T15:13:09.980Z,36.80
2022-08-05T15:15:54.171Z,36.60
2022-08-05T15:18:23.362Z,36.40
2022-08-05T15:20:50.091Z,36.30
2022-08-05T15:23:17.769Z,36.10
2022-08-05T15:25:53.327Z,36.00
2022-08-05T15:28:27.194Z,36.00
2022-08-05T15:30:54.908Z,35.90
2022-08-05T15:34:04.704Z,35.90
2022-08-05T15:36:17.224Z,35.90
2022-08-05T15:38:51.222Z,35.80
2022-08-05T15:41:57.451Z,35.70
2022-08-05T15:44:24.695Z,35.50
2022-08-05T15:46:52.650Z,35.30
2022-08-05T15:49:27.341Z,35.20
2022-08-05T15:52:13.349Z,35.10
2022-08-05T15:54:42.803Z,35.00
2022-08-05T15:57:09.891Z,35.00
2022-08-05T15:59:38.215Z,34.90
2022-08-05T16:02:05.371Z,34.80
2022-08-05T16:04:41.451Z,34.70
2022-08-05T16:07:10.655Z,34.60
2022-08-05T16:09:37.573Z,34.60
2022-08-05T16:12:08.704Z,34.60
2022-08-05T16:14:35.397Z,34.60
2022-08-05T16:17:02.154Z,34.60
2022-08-05T16:20:05.432Z,34.60
2022-08-05T16:22:16.228Z,34.60
2022-08-05T16:24:51.183Z,34.70
2022-08-05T16:27:18.976Z,34.60
2022-08-05T16:29:50.809Z,34.60
2022-08-05T16:32:28.515Z,34.50
2022-08-05T16:34:56.806Z,34.40
2022-08-05T16:38:02.565Z,34.30
2022-08-05T16:40:23.966Z,34.20
2022-08-05T16:42:52.229Z,34.00
2022-08-05T16:46:05.266Z,33.90
2022-08-05T16:48:05.881Z,33.80
2022-08-05T16:50:32.629Z,33.60
2022-08-05T16:53:01.590Z,33.60
2022-08-05T16:55:47.113Z,33.40
2022-08-05T16:58:14.408Z,33.30
2022-08-05T17:00:41.188Z,33.20
2022-08-05T17:03:15.163Z,33.10
2022-08-05T17:05:53.209Z,33.00
2022-08-05T17:08:36.362Z,32.90
2022-08-05T17:11:08.861Z,32.80
2022-08-05T17:13:41.371Z,32.70
2022-08-05T17:16:27.974Z,32.60
2022-08-05T17:18:55.836Z,32.60
2022-08-05T17:21:23.758Z,32.50
2022-08-05T17:24:05.510Z,32.50
2022-08-05T17:26:38.984Z,32.40
2022-08-05T17:29:09.844Z,32.40
2022-08-05T17:31:56.575Z,32.30
2022-08-05T17:34:30.181Z,32.20
2022-08-05T17:36:59.327Z,32.10
2022-08-05T17:39:34.152Z,32.10
2022-08-05T17:42:17.295Z,32.00
2022-08-05T17:44:50.290Z,31.90
2022-08-05T17:47:23.066Z,31.80
2022-08-05T17:50:00.157Z,31.70
2022-08-05T17:52:32.198Z,31.70
2022-08-05T17:54:59.221Z,31.60
2022-08-05T17:57:25.971Z,31.50
2022-08-05T18:00:03.227Z,31.50
2022-08-05T18:02:31.399Z,31.50
2022-08-05T18:05:02.770Z,31.50
2022-08-05T18:07:32.796Z,31.40
2022-08-05T18:10:09.810Z,31.40
2022-08-05T18:12:37.320Z,31.30
2022-08-05T18:15:04.771Z,31.20
2022-08-05T18:18:00.312Z,31.10
2022-08-05T18:20:29.161Z,31.10
2022-08-05T18:23:04.885Z,31.00
2022-08-05T18:25:39.063Z,30.90
2022-08-05T18:28:09.434Z,30.80
2022-08-05T18:30:39.125Z,30.70
2022-08-05T18:33:07.403Z,30.60
2022-08-05T18:36:01.372Z,30.60
2022-08-05T18:38:25.957Z,30.50
2022-08-05T18:41:56.952Z,30.40
2022-08-05T18:43:42.727Z,30.40
2022-08-05T18:46:10.189Z,30.30
2022-08-05T18:48:41.569Z,30.20
2022-08-05T18:52:04.669Z,30.10
2022-08-05T18:54:14.572Z,30.10
2022-08-05T18:56:41.861Z,30.00
2022-08-05T18:59:42.631Z,29.80
2022-08-05T19:02:11.022Z,29.70
2022-08-05T19:05:01.542Z,29.60
2022-08-05T19:07:25.246Z,29.60
2022-08-05T19:09:56.705Z,29.50
2022-08-05T19:12:23.546Z,29.40
2022-08-05T19:15:00.750Z,29.40
2022-08-05T19:17:33.718Z,29.30
2022-08-05T19:20:16.520Z,29.20
2022-08-05T19:22:44.220Z,29.10
2022-08-05T19:25:11.238Z,29.00
2022-08-05T19:27:56.436Z,29.00
2022-08-05T19:30:23.162Z,28.90
2022-08-05T19:32:50.763Z,28.80
2022-08-05T19:35:17.562Z,28.80
2022-08-05T19:38:06.473Z,28.70
2022-08-05T19:40:34.950Z,28.60
2022-08-05T19:43:05.328Z,28.60
2022-08-05T19:45:36.926Z,28.50
2022-08-05T19:48:05.376Z,28.50
2022-08-05T19:50:32.699Z,28.50
2022-08-05T19:53:09.307Z,28.40
2022-08-05T19:56:14.879Z,28.40
2022-08-05T19:58:29.531Z,28.40
2022-08-05T20:00:56.787Z,28.30
2022-08-05T20:03:25.336Z,28.30
2022-08-05T20:05:56.555Z,28.20
2022-08-05T20:08:24.829Z,28.20
2022-08-05T20:10:52.276Z,28.10
2022-08-05T20:13:30.107Z,28.00
2022-08-05T20:16:06.295Z,27.90
2022-08-05T20:18:35.858Z,27.90
2022-08-05T20:21:04.684Z,27.80
2022-08-05T20:23:39.378Z,27.80
2022-08-05T20:26:17.771Z,27.70
2022-08-05T20:28:49.695Z,27.70
2022-08-05T20:31:17.483Z,27.70
2022-08-05T20:33:48.858Z,27.60
2022-08-05T20:36:17.866Z,27.60
2022-08-05T20:38:53.981Z,27.60
2022-08-05T20:41:27.526Z,27.60
2022-08-05T20:44:18.507Z,27.50
2022-08-05T20:46:55.585Z,27.50
2022-08-05T20:49:24.533Z,27.50
2022-08-05T20:51:54.009Z,27.50
2022-08-05T20:54:21.616Z,27.50
2022-08-05T20:56:48.953Z,27.50
2022-08-05T20:59:19.153Z,27.40
2022-08-05T21:01:46.418Z,27.40
2022-08-05T21:04:13.853Z,27.40
2022-08-05T21:06:45.311Z,27.40
2022-08-05T21:09:14.422Z,27.40
2022-08-05T21:12:07.388Z,27.40
2022-08-05T21:14:34.651Z,27.30
2022-08-05T21:17:03.116Z,27.30
2022-08-05T21:19:46.570Z,27.30
2022-08-05T21:22:23.490Z,27.30
2022-08-05T21:24:52.436Z,27.20
2022-08-05T21:27:25.199Z,27.20
2022-08-05T21:29:55.683Z,27.20
2022-08-05T21:32:24.455Z,27.20
2022-08-05T21:35:06.957Z,27.10
2022-08-05T21:37:41.280Z,27.10
2022-08-05T21:40:13.124Z,27.10
2022-08-05T21:42:44.647Z,27.10
2022-08-05T21:45:17.654Z,27.10
2022-08-05T21:47:56.317Z,27.00
2022-08-05T21:50:26.278Z,27.00
2022-08-05T21:52:53.387Z,26.90
2022-08-05T21:56:01.668Z,26.90
2022-08-05T21:58:07.187Z,26.80
2022-08-05T22:00:37.360Z,26.80
2022-08-05T22:03:04.112Z,26.80
2022-08-05T22:05:48.423Z,26.80
2022-08-05T22:08:22.058Z,26.80
2022-08-05T22:10:51.030Z,26.70
2022-08-05T22:14:31.360Z,26.50
2022-08-05T22:16:15.686Z,26.30
2022-08-05T22:18:52.460Z,26.20
2022-08-05T22:21:19.817Z,26.00
2022-08-05T22:24:13.037Z,25.90
2022-08-05T22:27:13.977Z,25.80
2022-08-05T22:29:43.253Z,25.80
2022-08-05T22:32:10.312Z,25.70
2022-08-05T22:34:37.013Z,25.60
2022-08-05T22:37:04.670Z,25.60
2022-08-05T22:39:33.974Z,25.50
2022-08-05T22:42:11.436Z,25.60
2022-08-05T22:44:48.568Z,25.50
2022-08-05T22:47:29.060Z,25.40
2022-08-05T22:50:20.112Z,25.30
2022-08-05T22:52:43.995Z,25.20
2022-08-05T22:55:19.230Z,25.20
2022-08-05T22:57:47.159Z,25.10
2022-08-05T23:00:18.245Z,25.00
2022-08-05T23:02:48.073Z,24.90
2022-08-05T23:05:15.515Z,24.80
2022-08-05T23:07:45.449Z,24.80
2022-08-05T23:10:16.226Z,24.60
2022-08-05T23:12:47.550Z,24.50
2022-08-05T23:15:18.061Z,24.50
2022-08-05T23:18:02.464Z,24.40
2022-08-05T23:20:32.109Z,24.30
2022-08-05T23:22:59.215Z,24.30
2022-08-05T23:25:55.045Z,24.20
2022-08-05T23:28:12.754Z,24.10
2022-08-05T23:30:43.439Z,24.00
2022-08-05T23:33:22.101Z,23.90
2022-08-05T23:35:55.824Z,23.80
2022-08-05T23:38:23.273Z,23.80
2022-08-05T23:40:52.587Z,23.80
2022-08-05T23:43:25.778Z,23.70
2022-08-05T23:46:20.773Z,23.70
2022-08-05T23:49:00.036Z,23.70
2022-08-05T23:51:55.286Z,23.60
2022-08-05T23:54:29.816Z,23.60
2022-08-05T23:57:03.364Z,23.50
